Terminal Aerodrome Forecast
Issued by NWS

Home | Current Version | Previous Version | Text Only | Print | Product List | Glossary On
Versions: 1 2 3 4 5 6 7 8 9 10 11 12 13 14 15 16 17 18 19 20 21
151
FTUS41 KBGM 261741
TAFRME
TAF
KRME 261741Z 2618/2718 28010G20KT P6SM SCT025 BKN040
      TEMPO 2618/2620 3SM -SHSN OVC025
     FM262200 26008KT P6SM SCT040
     FM270300 VRB04KT P6SM BKN250
     FM271200 25007KT P6SM BKN080=

USA.gov is the U.S. government's official web portal to all federal, state and local government web resources and services.